Time;durP1;ratioP1;P1;durP2;ratioP2;P2;SDS_P1;SDS_P2;PMS_P1;PMS_P2;Temp;Humidity;BMP_temperature;BMP_pressure;BME280_temperature;BME280_humidity;BME280_pressure;Samples;Min_cycle;Max_cycle;Signal;HPM_P1;HPM_P2
2023/07/23 00:00:34;;;;;;;;;;;;;;;24.77;100.00;99469.63;5092785;28;1167;-66
2023/07/23 00:03:01;;;;;;;;;;;;;;;23.92;100.00;99482.53;5094007;28;858;-71
2023/07/23 00:05:28;;;;;;;;;;;;;;;23.22;100.00;99490.94;5093901;28;838;-69
2023/07/23 00:07:57;;;;;;;;;;;;;;;22.69;100.00;99506.22;5093796;28;813;-74
2023/07/23 00:10:25;;;;;;;;;;;;;;;22.30;100.00;99503.66;5093804;28;822;-63
2023/07/23 00:12:52;;;;;;;;;;;;;;;21.91;100.00;99489.78;5093648;28;896;-64
2023/07/23 00:15:19;;;;;;;;;;;;;;;21.66;100.00;99463.06;5093683;28;853;-61
2023/07/23 00:17:45;;;;;;;;;;;;;;;21.55;100.00;99448.78;5093494;28;794;-63
2023/07/23 00:20:13;;;;;;;;;;;;;;;21.51;100.00;99443.41;5093500;28;1969;-67
2023/07/23 00:22:40;;;;;;;;;;;;;;;21.51;100.00;99442.63;5092572;28;885;-67
2023/07/23 00:25:08;;;;;;;;;;;;;;;21.52;100.00;99453.38;5093523;28;853;-67
2023/07/23 00:27:35;;;;;;;;;;;;;;;21.58;100.00;99481.59;5093381;28;873;-67
2023/07/23 00:30:03;;;;;;;;;;;;;;;21.66;100.00;99463.06;5092017;28;2168;-67
2023/07/23 00:32:30;;;;;;;;;;;;;;;21.72;100.00;99474.38;5093371;28;869;-66
2023/07/23 00:34:57;;;;;;;;;;;;;;;21.67;100.00;99506.78;5093465;28;857;-64
2023/07/23 00:37:27;;;;;;;;;;;;;;;21.62;100.00;99589.03;5093498;28;814;-63
2023/07/23 00:39:53;;;;;;;;;;;;;;;21.57;100.00;99648.72;5091920;28;1894;-60
2023/07/23 00:42:20;;;;;;;;;;;;;;;21.58;100.00;99675.59;5093236;28;835;-60
2023/07/23 00:44:46;;;;;;;;;;;;;;;21.57;100.00;99688.91;5126002;27;1246;-60
2023/07/23 00:47:13;;;;;;;;;;;;;;;21.51;100.00;99709.72;5093112;28;849;-61
2023/07/23 00:49:40;;;;;;;;;;;;;;;21.35;100.00;99719.31;5092924;28;880;-67
2023/07/23 00:52:07;;;;;;;;;;;;;;;21.22;100.00;99708.31;5092960;28;845;-71
2023/07/23 00:54:34;;;;;;;;;;;;;;;21.10;100.00;99701.69;5093011;28;874;-70
2023/07/23 00:57:02;;;;;;;;;;;;;;;21.04;100.00;99685.94;5092932;28;834;-72
2023/07/23 00:59:52;;;;;;;;;;;;;;;20.89;100.00;99666.22;5092579;28;1968;-73
2023/07/23 01:02:19;;;;;;;;;;;;;;;20.77;100.00;99670.81;5092657;28;1065;-76
2023/07/23 01:04:45;;;;;;;;;;;;;;;20.79;100.00;99663.47;5091356;28;1381;-71
2023/07/23 01:07:13;;;;;;;;;;;;;;;20.87;100.00;99655.47;5092916;28;794;-70
2023/07/23 01:09:40;;;;;;;;;;;;;;;20.91;100.00;99661.69;5092927;28;856;-71
2023/07/23 01:12:07;;;;;;;;;;;;;;;20.95;100.00;99667.91;5092932;28;886;-71
2023/07/23 01:14:34;;;;;;;;;;;;;;;20.99;100.00;99662.91;5092793;28;850;-72
2023/07/23 01:17:01;;;;;;;;;;;;;;;20.98;100.00;99633.25;5093180;28;858;-73
2023/07/23 01:19:28;;;;;;;;;;;;;;;20.98;100.00;99627.63;5092789;28;1897;-73
2023/07/23 01:21:59;;;;;;;;;;;;;;;20.95;100.00;99602.50;5092967;28;822;-74
2023/07/23 01:24:26;;;;;;;;;;;;;;;21.00;100.00;99573.78;5092383;28;799;-71
2023/07/23 01:26:53;;;;;;;;;;;;;;;21.03;100.00;99552.38;5092547;28;896;-72
2023/07/23 01:29:19;;;;;;;;;;;;;;;21.08;100.00;99555.28;5092620;28;790;-73
2023/07/23 01:31:46;;;;;;;;;;;;;;;21.13;100.00;99551.03;5091003;28;1414;-73
2023/07/23 01:34:13;;;;;;;;;;;;;;;21.03;100.00;99533.47;5092348;28;843;-72
2023/07/23 01:36:40;;;;;;;;;;;;;;;20.92;100.00;99531.22;5092285;28;896;-72
2023/07/23 01:39:07;;;;;;;;;;;;;;;20.84;100.00;99530.03;5092223;28;1951;-73
2023/07/23 01:41:33;;;;;;;;;;;;;;;20.76;100.00;99535.25;5092551;28;867;-74
2023/07/23 01:44:00;;;;;;;;;;;;;;;20.82;100.00;99540.19;5092280;28;861;-72
2023/07/23 01:46:27;;;;;;;;;;;;;;;20.86;100.00;99552.03;5090972;28;1174;-72
2023/07/23 01:48:54;;;;;;;;;;;;;;;20.93;100.00;99549.63;5092575;28;873;-74
2023/07/23 01:51:21;;;;;;;;;;;;;;;21.03;100.00;99555.16;5092224;28;868;-74
2023/07/23 01:53:47;;;;;;;;;;;;;;;21.04;100.00;99542.66;5092431;28;841;-74
2023/07/23 01:56:14;;;;;;;;;;;;;;;21.05;100.00;99561.09;5092205;28;979;-74
2023/07/23 01:58:41;;;;;;;;;;;;;;;21.03;100.00;99567.19;5091935;28;1906;-74
2023/07/23 02:01:08;;;;;;;;;;;;;;;21.00;100.00;99574.53;5091913;28;937;-73
2023/07/23 02:03:34;;;;;;;;;;;;;;;21.00;100.00;99607.47;5091993;28;889;-72
2023/07/23 02:06:01;;;;;;;;;;;;;;;21.01;100.00;99586.53;5092168;28;798;-72
2023/07/23 02:08:27;;;;;;;;;;;;;;;21.03;100.00;99594.50;5092124;28;869;-71
2023/07/23 02:11:00;;;;;;;;;;;;;;;20.99;100.00;99606.72;5092110;28;885;-71
2023/07/23 02:13:28;;;;;;;;;;;;;;;21.01;100.00;99609.03;5092105;28;853;-71
2023/07/23 02:15:55;;;;;;;;;;;;;;;21.01;100.00;99589.34;5091854;28;795;-71
2023/07/23 02:18:22;;;;;;;;;;;;;;;20.97;100.00;99577.53;5091718;28;1885;-71
2023/07/23 02:20:49;;;;;;;;;;;;;;;20.97;100.00;99567.09;5091771;28;853;-71
2023/07/23 02:23:16;;;;;;;;;;;;;;;21.02;100.00;99557.22;5091945;28;864;-72
2023/07/23 02:25:43;;;;;;;;;;;;;;;20.97;100.00;99529.75;5090488;28;1240;-73
2023/07/23 02:28:10;;;;;;;;;;;;;;;20.94;100.00;99517.47;5092078;28;790;-73
2023/07/23 02:30:37;;;;;;;;;;;;;;;20.97;100.00;99504.47;5091656;28;898;-74
2023/07/23 02:33:04;;;;;;;;;;;;;;;20.92;100.00;99503.13;5091773;28;795;-73
2023/07/23 02:35:42;;;;;;;;;;;;;;;20.90;100.00;99508.44;5090280;28;1210;-72
2023/07/23 02:38:09;;;;;;;;;;;;;;;20.84;100.00;99504.75;5091635;28;1070;-74
2023/07/23 02:40:35;;;;;;;;;;;;;;;20.78;100.00;99506.66;5091469;28;1909;-72
2023/07/23 02:43:02;;;;;;;;;;;;;;;20.71;100.00;99501.44;5091580;28;856;-72
2023/07/23 02:45:31;;;;;;;;;;;;;;;20.63;100.00;99492.59;5092274;28;857;-71
2023/07/23 02:47:58;;;;;;;;;;;;;;;20.59;100.00;99501.22;5095602;28;931;-71
2023/07/23 02:50:25;;;;;;;;;;;;;;;20.57;100.00;99494.50;5095188;28;830;-70
2023/07/23 02:52:51;;;;;;;;;;;;;;;20.52;100.00;99493.09;5094047;28;1133;-70
2023/07/23 02:55:18;;;;;;;;;;;;;;;20.50;100.00;99495.59;5095182;28;884;-69
2023/07/23 02:57:45;;;;;;;;;;;;;;;20.50;100.00;99484.38;5095208;28;870;-69
2023/07/23 03:00:11;;;;;;;;;;;;;;;20.50;100.00;99489.22;5094785;28;1909;-68
2023/07/23 03:02:37;;;;;;;;;;;;;;;20.49;100.00;99501.72;5095126;28;849;-68
2023/07/23 03:05:03;;;;;;;;;;;;;;;20.48;100.00;99514.97;5095069;28;931;-68
2023/07/23 03:07:32;;;;;;;;;;;;;;;20.44;100.00;99534.03;5095086;28;865;-68
2023/07/23 03:09:59;;;;;;;;;;;;;;;20.42;100.00;99550.56;5094967;28;889;-67
2023/07/23 03:12:26;;;;;;;;;;;;;;;20.43;100.00;99546.50;5094862;28;802;-67
2023/07/23 03:14:53;;;;;;;;;;;;;;;20.45;100.00;99534.81;5095085;28;893;-67
2023/07/23 03:17:20;;;;;;;;;;;;;;;20.44;100.00;99517.19;5094783;28;895;-67
2023/07/23 03:19:46;;;;;;;;;;;;;;;20.43;100.00;99515.63;5094722;28;1889;-67
2023/07/23 03:22:13;;;;;;;;;;;;;;;20.44;100.00;99510.78;5094699;28;866;-68
2023/07/23 03:24:40;;;;;;;;;;;;;;;20.46;100.00;99511.09;5094877;28;826;-67
2023/07/23 03:27:07;;;;;;;;;;;;;;;20.53;100.00;99511.50;5094598;28;881;-67
2023/07/23 03:29:35;;;;;;;;;;;;;;;20.67;100.00;99506.44;5094525;28;837;-67
2023/07/23 03:32:02;;;;;;;;;;;;;;;20.83;100.00;99522.88;5094634;28;861;-67
2023/07/23 03:34:31;;;;;;;;;;;;;;;20.96;100.00;99539.47;5094538;28;850;-67
2023/07/23 03:36:58;;;;;;;;;;;;;;;21.07;100.00;99550.91;5094439;28;886;-67
2023/07/23 03:39:25;;;;;;;;;;;;;;;21.16;100.00;99564.88;5094418;28;1882;-67
2023/07/23 03:41:53;;;;;;;;;;;;;;;21.21;100.00;99566.28;5094408;28;830;-67
2023/07/23 03:44:20;;;;;;;;;;;;;;;21.24;100.00;99576.53;5094262;28;1183;-67
2023/07/23 03:47:05;;;;;;;;;;;;;;;21.28;100.00;99581.97;5094434;28;1159;-67
2023/07/23 03:49:32;;;;;;;;;;;;;;;21.39;100.00;99582.19;5094228;28;866;-67
2023/07/23 03:51:59;;;;;;;;;;;;;;;21.46;100.00;99573.38;5094187;28;823;-66
2023/07/23 03:54:27;;;;;;;;;;;;;;;21.48;100.00;99578.53;5094058;28;802;-66
2023/07/23 03:56:54;;;;;;;;;;;;;;;21.41;100.00;99579.66;5094090;28;909;-65
2023/07/23 03:59:21;;;;;;;;;;;;;;;21.33;100.00;99587.69;5093454;28;1983;-65
2023/07/23 04:01:49;;;;;;;;;;;;;;;21.32;100.00;99576.94;5094330;28;857;-64
2023/07/23 04:04:16;;;;;;;;;;;;;;;21.39;100.00;99593.41;5094023;28;798;-64
2023/07/23 04:06:44;;;;;;;;;;;;;;;21.44;100.00;99597.63;5093914;28;885;-64
2023/07/23 04:09:13;;;;;;;;;;;;;;;21.50;100.00;99590.06;5093865;28;1227;-64
2023/07/23 04:11:40;;;;;;;;;;;;;;;21.57;100.00;99584.84;5093879;28;841;-65
2023/07/23 04:14:08;;;;;;;;;;;;;;;21.69;100.00;99577.38;5093963;28;825;-64
2023/07/23 04:16:35;;;;;;;;;;;;;;;21.90;100.00;99581.06;5093782;28;901;-63
2023/07/23 04:19:02;;;;;;;;;;;;;;;22.07;100.00;99561.63;5093710;28;1957;-63
2023/07/23 04:21:29;;;;;;;;;;;;;;;22.22;100.00;99564.41;5093709;28;889;-64
2023/07/23 04:23:57;;;;;;;;;;;;;;;22.31;100.00;99567.13;5093598;28;858;-64
2023/07/23 04:26:26;;;;;;;;;;;;;;;22.43;100.00;99565.28;5093452;28;891;-64
2023/07/23 04:28:53;;;;;;;;;;;;;;;22.51;100.00;99572.03;5093419;28;809;-64
2023/07/23 04:31:20;;;;;;;;;;;;;;;22.55;100.00;99566.19;5093505;28;977;-64
2023/07/23 04:33:48;;;;;;;;;;;;;;;22.67;100.00;99556.63;5093508;28;806;-65
2023/07/23 04:36:15;;;;;;;;;;;;;;;22.73;100.00;99568.75;5092060;28;1220;-65
2023/07/23 04:38:43;;;;;;;;;;;;;;;22.80;100.00;99571.13;5093202;28;1929;-66
2023/07/23 04:41:10;;;;;;;;;;;;;;;22.84;100.00;99577.31;5093320;28;836;-66
2023/07/23 04:43:38;;;;;;;;;;;;;;;22.99;100.00;99580.06;5093473;28;857;-66
2023/07/23 04:46:05;;;;;;;;;;;;;;;23.17;100.00;99579.03;5093171;28;843;-66
2023/07/23 04:48:36;;;;;;;;;;;;;;;23.33;100.00;99580.50;5093288;28;865;-66
2023/07/23 04:51:05;;;;;;;;;;;;;;;23.55;100.00;99590.44;5093093;28;870;-66
2023/07/23 04:53:33;;;;;;;;;;;;;;;23.73;100.00;99583.72;5093226;28;790;-65
2023/07/23 04:56:01;;;;;;;;;;;;;;;23.82;100.00;99589.97;5093243;28;833;-67
2023/07/23 04:58:29;;;;;;;;;;;;;;;23.97;100.00;99589.06;5092228;28;1894;-66
2023/07/23 05:00:58;;;;;;;;;;;;;;;24.12;100.00;99569.16;5092862;28;865;-66
2023/07/23 05:03:25;;;;;;;;;;;;;;;24.28;100.00;99570.56;5092820;28;844;-66
2023/07/23 05:05:54;;;;;;;;;;;;;;;24.45;100.00;99572.22;5092797;28;820;-67
2023/07/23 05:08:22;;;;;;;;;;;;;;;24.60;100.00;99566.44;5092448;28;861;-67
2023/07/23 05:10:49;;;;;;;;;;;;;;;24.72;100.00;99572.13;5092791;28;869;-67
2023/07/23 05:13:16;;;;;;;;;;;;;;;24.80;100.00;99578.84;5092843;28;834;-66
2023/07/23 05:15:43;;;;;;;;;;;;;;;24.97;100.00;99574.03;5092765;28;866;-66
2023/07/23 05:18:10;;;;;;;;;;;;;;;25.20;100.00;99574.13;5092936;28;782;-66
2023/07/23 05:20:37;;;;;;;;;;;;;;;25.40;100.00;99576.00;5092567;28;1918;-66
2023/07/23 05:23:05;;;;;;;;;;;;;;;25.58;100.00;99580.38;5092873;28;858;-65
2023/07/23 05:25:32;;;;;;;;;;;;;;;25.72;100.00;99581.44;5092401;28;911;-65
2023/07/23 05:28:00;;;;;;;;;;;;;;;25.87;100.00;99587.63;5092451;28;861;-65
2023/07/23 05:30:26;;;;;;;;;;;;;;;26.01;100.00;99589.47;5092397;28;814;-66
2023/07/23 05:32:52;;;;;;;;;;;;;;;26.11;100.00;99586.34;5092447;28;794;-65
2023/07/23 05:35:19;;;;;;;;;;;;;;;26.19;100.00;99593.03;5092484;28;876;-65
2023/07/23 05:37:46;;;;;;;;;;;;;;;26.34;100.00;99593.53;5092423;28;830;-66
2023/07/23 05:40:13;;;;;;;;;;;;;;;26.38;100.00;99601.78;5092393;28;1960;-64
2023/07/23 05:42:40;;;;;;;;;;;;;;;26.41;100.00;99601.50;5092177;28;830;-65
2023/07/23 05:45:07;;;;;;;;;;;;;;;26.47;100.00;99610.00;5092394;28;849;-65
2023/07/23 05:47:35;;;;;;;;;;;;;;;26.53;100.00;99607.94;5092191;28;865;-65
2023/07/23 05:50:02;;;;;;;;;;;;;;;26.53;100.00;99610.75;5092249;28;807;-65
2023/07/23 05:52:28;;;;;;;;;;;;;;;26.59;100.00;99617.22;5092003;28;983;-65
2023/07/23 05:54:56;;;;;;;;;;;;;;;26.62;100.00;99607.66;5091992;28;906;-65
2023/07/23 05:57:24;;;;;;;;;;;;;;;26.61;100.00;99614.66;5091992;28;897;-66
2023/07/23 05:59:51;;;;;;;;;;;;;;;26.62;100.00;99616.19;5091924;28;1983;-65
2023/07/23 06:02:18;;;;;;;;;;;;;;;26.74;100.00;99613.34;5091952;28;865;-65
2023/07/23 06:04:45;;;;;;;;;;;;;;;26.86;100.00;99607.09;5092138;28;877;-66
2023/07/23 06:07:12;;;;;;;;;;;;;;;27.09;100.00;99607.00;5090689;28;1183;-65
2023/07/23 06:09:38;;;;;;;;;;;;;;;27.34;100.00;99602.28;5092007;28;877;-66
2023/07/23 06:12:05;;;;;;;;;;;;;;;27.68;100.00;99614.19;5091956;28;817;-67
2023/07/23 06:14:33;;;;;;;;;;;;;;;28.04;100.00;99607.75;5091910;28;893;-67
2023/07/23 06:17:00;;;;;;;;;;;;;;;28.30;100.00;99599.50;5091905;28;892;-67
2023/07/23 06:19:27;;;;;;;;;;;;;;;28.45;100.00;99606.88;5091726;28;1898;-68
2023/07/23 06:21:55;;;;;;;;;;;;;;;28.54;100.00;99598.00;5095088;28;848;-67
2023/07/23 06:24:22;;;;;;;;;;;;;;;28.67;100.00;99600.94;5095877;28;837;-68
2023/07/23 06:26:49;;;;;;;;;;;;;;;28.73;100.00;99595.22;5095684;28;830;-69
2023/07/23 06:29:16;;;;;;;;;;;;;;;28.92;100.00;99596.00;5096097;28;862;-68
2023/07/23 06:31:43;;;;;;;;;;;;;;;29.05;100.00;99601.03;5095773;28;861;-69
2023/07/23 06:34:10;;;;;;;;;;;;;;;29.19;100.00;99598.28;5095673;28;860;-68
2023/07/23 06:36:37;;;;;;;;;;;;;;;29.31;100.00;99589.06;5095671;28;830;-67
2023/07/23 06:39:04;;;;;;;;;;;;;;;29.46;100.00;99588.59;5095549;28;1956;-69
2023/07/23 06:41:31;;;;;;;;;;;;;;;29.92;100.00;99595.16;5095705;28;806;-68
2023/07/23 06:43:59;;;;;;;;;;;;;;;30.33;100.00;99593.22;5095597;28;944;-68
2023/07/23 06:46:26;;;;;;;;;;;;;;;30.87;100.00;99589.06;5095428;28;834;-67
2023/07/23 06:48:53;;;;;;;;;;;;;;;31.62;100.00;99597.59;5095316;28;878;-69
2023/07/23 06:51:21;;;;;;;;;;;;;;;32.28;100.00;99591.56;5095623;28;889;-68
2023/07/23 06:53:47;;;;;;;;;;;;;;;32.84;100.00;99597.88;5095330;28;834;-67
2023/07/23 06:56:15;;;;;;;;;;;;;;;33.22;100.00;99603.00;5095303;28;806;-68
2023/07/23 06:58:43;;;;;;;;;;;;;;;33.60;100.00;99601.66;5094773;28;1967;-69
2023/07/23 07:01:10;;;;;;;;;;;;;;;34.07;100.00;99595.38;5095242;28;865;-67
2023/07/23 07:03:37;;;;;;;;;;;;;;;34.47;100.00;99597.69;5095265;28;881;-69
2023/07/23 07:06:05;;;;;;;;;;;;;;;34.70;100.00;99585.44;5095149;28;810;-69
2023/07/23 07:08:32;;;;;;;;;;;;;;;34.80;100.00;99591.34;5094955;28;798;-68
2023/07/23 07:10:59;;;;;;;;;;;;;;;34.77;100.00;99599.75;5095282;28;781;-69
2023/07/23 07:13:26;;;;;;;;;;;;;;;34.96;100.00;99598.56;5094896;28;834;-69
2023/07/23 07:15:53;;;;;;;;;;;;;;;35.26;100.00;99591.19;5094928;28;818;-67
2023/07/23 07:18:20;;;;;;;;;;;;;;;34.89;100.00;99605.09;5095004;28;849;-67
2023/07/23 07:21:00;;;;;;;;;;;;;;;34.80;100.00;99603.56;5094657;28;1889;-66
2023/07/23 07:23:28;;;;;;;;;;;;;;;34.94;100.00;99601.25;5095253;28;819;-69
2023/07/23 07:25:56;;;;;;;;;;;;;;;35.02;100.00;99604.09;5094725;28;932;-70
2023/07/23 07:28:23;;;;;;;;;;;;;;;34.89;100.00;99600.13;5094681;28;834;-68
2023/07/23 07:30:51;;;;;;;;;;;;;;;35.39;100.00;99608.16;5094334;28;849;-69
2023/07/23 07:33:18;;;;;;;;;;;;;;;35.71;100.00;99615.28;5094332;28;870;-68
2023/07/23 07:35:46;;;;;;;;;;;;;;;34.59;100.00;99618.16;5094566;28;811;-67
2023/07/23 07:38:13;;;;;;;;;;;;;;;34.00;100.00;99633.44;5094724;28;865;-68
2023/07/23 07:40:39;;;;;;;;;;;;;;;34.24;100.00;99629.25;5094479;28;1901;-68
2023/07/23 07:43:06;;;;;;;;;;;;;;;34.23;100.00;99624.13;5094320;28;814;-69
2023/07/23 07:45:34;;;;;;;;;;;;;;;34.27;100.00;99633.88;5094630;28;824;-67
2023/07/23 07:48:01;;;;;;;;;;;;;;;34.58;100.00;99617.38;5094502;28;1024;-68
2023/07/23 07:50:28;;;;;;;;;;;;;;;35.20;100.00;99628.75;5092992;28;1222;-67
2023/07/23 07:52:55;;;;;;;;;;;;;;;35.77;100.00;99625.22;5092855;28;1275;-66
2023/07/23 07:55:22;;;;;;;;;;;;;;;35.05;100.00;99628.78;5094076;28;850;-66
2023/07/23 07:57:49;;;;;;;;;;;;;;;34.22;97.10;99629.06;5094227;28;841;-66
2023/07/23 08:00:15;;;;;;;;;;;;;;;34.29;100.00;99625.44;5093628;28;1971;-67
2023/07/23 08:02:41;;;;;;;;;;;;;;;34.48;100.00;99612.78;5093970;28;868;-68
2023/07/23 08:08:13;;;;;;;;;;;;;;;33.71;82.55;99624.19;5085246;28;1177;-66
2023/07/23 08:10:40;;;;;;;;;;;;;;;33.25;81.59;99636.25;5093982;28;965;-66
2023/07/23 08:13:08;;;;;;;;;;;;;;;33.37;88.01;99628.09;5093842;28;828;-68
2023/07/23 08:15:35;;;;;;;;;;;;;;;33.90;79.78;99621.75;5093808;28;985;-67
2023/07/23 08:18:02;;;;;;;;;;;;;;;33.45;75.52;99620.28;5093733;28;1259;-64
2023/07/23 08:20:32;;;;;;;;;;;;;;;33.10;71.98;99628.38;5093748;28;1914;-67
2023/07/23 08:22:59;;;;;;;;;;;;;;;33.07;70.79;99631.59;5093625;28;870;-64
2023/07/23 08:25:26;;;;;;;;;;;;;;;33.31;72.01;99638.97;5093578;28;818;-66
2023/07/23 08:27:59;;;;;;;;;;;;;;;33.51;72.52;99631.56;5093593;28;783;-68
2023/07/23 08:30:29;;;;;;;;;;;;;;;33.94;70.76;99636.47;5093475;28;808;-65
2023/07/23 08:32:56;;;;;;;;;;;;;;;33.92;71.40;99627.66;5093351;28;816;-66
2023/07/23 08:35:24;;;;;;;;;;;;;;;34.24;79.76;99631.38;5093706;28;798;-68
2023/07/23 08:37:51;;;;;;;;;;;;;;;34.45;70.64;99623.31;5093298;28;888;-66
2023/07/23 08:40:19;;;;;;;;;;;;;;;34.28;69.36;99628.88;5093211;28;1877;-68
2023/07/23 08:42:58;;;;;;;;;;;;;;;33.99;67.84;99629.00;5092570;28;862;-66
2023/07/23 08:45:31;;;;;;;;;;;;;;;33.90;65.83;99633.22;5093266;28;909;-69
2023/07/23 08:48:09;;;;;;;;;;;;;;;34.16;73.89;99646.47;5093120;28;950;-66
2023/07/23 08:50:37;;;;;;;;;;;;;;;33.45;68.48;99628.88;5093249;28;1257;-65
2023/07/23 08:53:03;;;;;;;;;;;;;;;33.00;76.08;99633.06;5091975;28;807;-70
2023/07/23 08:55:30;;;;;;;;;;;;;;;33.67;74.49;99632.41;5093084;28;818;-68
2023/07/23 08:57:57;;;;;;;;;;;;;;;33.73;66.99;99627.25;5093307;28;1187;-67
2023/07/23 09:00:27;;;;;;;;;;;;;;;32.63;69.99;99622.94;5092665;28;1905;-71
2023/07/23 09:02:53;;;;;;;;;;;;;;;32.45;73.65;99636.09;5092934;28;832;-69
2023/07/23 09:05:20;;;;;;;;;;;;;;;32.44;70.87;99637.44;5092800;28;849;-70
2023/07/23 09:07:48;;;;;;;;;;;;;;;32.88;77.84;99628.97;5092925;28;818;-70
2023/07/23 09:10:15;;;;;;;;;;;;;;;32.92;71.53;99635.09;5092891;28;814;-69
2023/07/23 09:12:42;;;;;;;;;;;;;;;32.74;70.28;99637.69;5092700;28;806;-71
2023/07/23 09:46:12;;;;;;;;;;;;;;;32.25;69.54;99647.00;5885225;22;1678;-69
2023/07/23 09:48:49;;;;;;;;;;;;;;;32.84;66.93;99649.38;5072004;28;813;-70
2023/07/23 09:51:15;;;;;;;;;;;;;;;33.05;64.54;99659.97;5071990;28;822;-67
2023/07/23 09:53:45;;;;;;;;;;;;;;;33.03;64.45;99657.69;5071947;28;819;-69
2023/07/23 09:56:15;;;;;;;;;;;;;;;32.96;64.31;99661.28;5072033;28;873;-70
2023/07/23 09:58:46;;;;;;;;;;;;;;;33.02;63.47;99670.47;5071641;28;1909;-70
2023/07/23 10:01:15;;;;;;;;;;;;;;;32.78;63.52;99679.50;5071897;28;920;-69
2023/07/23 10:03:49;;;;;;;;;;;;;;;32.63;62.97;99678.03;5071775;28;861;-72
2023/07/23 10:06:20;;;;;;;;;;;;;;;32.90;60.50;99692.13;5053818;28;1333;-67
2023/07/23 10:08:48;;;;;;;;;;;;;;;32.82;58.50;99689.25;5071665;28;873;-68
2023/07/23 10:11:16;;;;;;;;;;;;;;;32.98;62.68;99678.66;5071685;28;838;-70
2023/07/23 10:13:44;;;;;;;;;;;;;;;33.48;61.91;99682.19;5053718;28;1239;-69
2023/07/23 10:16:17;;;;;;;;;;;;;;;33.06;59.06;99690.16;5071606;28;803;-67
2023/07/23 10:18:44;;;;;;;;;;;;;;;32.37;61.29;99678.94;5071588;28;1941;-70
2023/07/23 10:21:11;;;;;;;;;;;;;;;32.34;60.40;99688.63;5053669;28;888;-68
2023/07/23 10:23:39;;;;;;;;;;;;;;;32.28;60.96;99691.63;5071616;28;826;-72
2023/07/23 10:26:21;;;;;;;;;;;;;;;32.59;61.45;99686.22;5071556;28;845;-72
2023/07/23 10:28:48;;;;;;;;;;;;;;;32.67;66.63;99686.28;5071756;28;814;-73
2023/07/23 10:31:25;;;;;;;;;;;;;;;33.24;70.31;99686.25;5071566;28;989;-72
2023/07/23 10:33:51;;;;;;;;;;;;;;;33.79;61.37;99690.91;5071649;28;845;-70
2023/07/23 10:36:22;;;;;;;;;;;;;;;33.49;60.55;99689.44;5087135;28;1281;-71
2023/07/23 10:39:09;;;;;;;;;;;;;;;33.67;61.70;99692.56;5071421;28;1889;-71
2023/07/23 10:41:53;;;;;;;;;;;;;;;33.42;56.38;99692.28;5057999;28;1076;-70
2023/07/23 10:44:24;;;;;;;;;;;;;;;33.10;57.29;99685.63;5086893;28;1214;-70
2023/07/23 10:46:50;;;;;;;;;;;;;;;33.28;57.43;99680.16;5071339;28;1229;-69
2023/07/23 10:49:21;;;;;;;;;;;;;;;33.49;57.26;99680.06;5071417;28;813;-73
2023/07/23 10:51:50;;;;;;;;;;;;;;;33.41;57.24;99680.03;5071315;28;905;-71
2023/07/23 10:57:24;;;;;;;;;;;;;;;33.70;54.73;99674.25;5089322;28;668;-67
2023/07/23 11:00:02;;;;;;;;;;;;;;;33.72;55.97;99671.59;5091337;28;1969;-69
2023/07/23 11:02:29;;;;;;;;;;;;;;;33.97;53.84;99677.59;5073390;28;1287;-70
2023/07/23 11:04:59;;;;;;;;;;;;;;;33.93;52.47;99665.72;5106186;28;1358;-68
2023/07/23 11:07:27;;;;;;;;;;;;;;;33.52;51.81;99676.84;5093630;28;814;-71
2023/07/23 11:09:56;;;;;;;;;;;;;;;33.57;52.63;99675.16;5095075;28;846;-66
2023/07/23 11:12:24;;;;;;;;;;;;;;;33.63;51.81;99672.13;5076817;28;1280;-72
2023/07/23 11:14:52;;;;;;;;;;;;;;;33.83;51.80;99662.63;5094774;28;888;-69
2023/07/23 11:17:19;;;;;;;;;;;;;;;33.81;51.78;99662.44;5095061;28;817;-68
2023/07/23 11:19:46;;;;;;;;;;;;;;;33.48;51.29;99652.75;5094775;28;1910;-69
2023/07/23 11:22:15;;;;;;;;;;;;;;;33.50;51.12;99662.34;5076962;28;1183;-73
2023/07/23 11:24:42;;;;;;;;;;;;;;;33.88;50.88;99663.78;5094830;28;908;-70
2023/07/23 11:27:10;;;;;;;;;;;;;;;34.34;49.53;99663.88;5094673;28;842;-71
2023/07/23 11:29:36;;;;;;;;;;;;;;;34.73;48.32;99664.63;5094783;28;888;-73
2023/07/23 11:32:03;;;;;;;;;;;;;;;35.52;46.37;99651.00;5094619;28;908;-68
2023/07/23 11:34:30;;;;;;;;;;;;;;;35.47;40.47;99652.00;5094739;28;794;-70
2023/07/23 11:36:56;;;;;;;;;;;;;;;35.77;40.08;99653.97;5094388;28;936;-69
2023/07/23 11:39:24;;;;;;;;;;;;;;;35.87;38.52;99665.59;5094472;28;1881;-68
2023/07/23 11:41:51;;;;;;;;;;;;;;;35.82;38.56;99660.81;5094559;28;841;-72
2023/07/23 11:44:18;;;;;;;;;;;;;;;36.10;38.06;99656.78;5094427;28;857;-69
2023/07/23 11:46:44;;;;;;;;;;;;;;;36.34;37.51;99678.34;5094410;28;1379;-69
2023/07/23 11:49:12;;;;;;;;;;;;;;;35.80;39.46;99680.78;5094290;28;884;-70
2023/07/23 11:51:39;;;;;;;;;;;;;;;35.82;40.68;99686.69;5094542;28;841;-70
2023/07/23 11:54:09;;;;;;;;;;;;;;;36.30;40.42;99675.09;5094226;28;860;-72
2023/07/23 11:56:39;;;;;;;;;;;;;;;35.43;42.12;99679.59;5094257;28;836;-71
2023/07/23 11:59:07;;;;;;;;;;;;;;;34.25;43.69;99688.16;5094047;28;1902;-72
2023/07/23 12:01:37;;;;;;;;;;;;;;;33.55;44.43;99690.03;5094078;28;1370;-70
2023/07/23 12:04:06;;;;;;;;;;;;;;;33.03;46.64;99686.31;5094088;28;866;-71
2023/07/23 12:06:35;;;;;;;;;;;;;;;33.08;46.93;99662.53;5093934;28;889;-70
2023/07/23 12:09:05;;;;;;;;;;;;;;;32.77;47.42;99680.78;5094062;28;801;-70
2023/07/23 12:11:32;;;;;;;;;;;;;;;33.80;46.07;99671.59;5093838;28;814;-70
2023/07/23 12:14:06;;;;;;;;;;;;;;;34.67;43.27;99652.59;5093717;28;895;-71
2023/07/23 12:16:37;;;;;;;;;;;;;;;33.83;43.77;99668.38;5093829;28;841;-70
2023/07/23 12:19:05;;;;;;;;;;;;;;;33.04;45.56;99655.59;5093721;28;1890;-70
2023/07/23 12:21:33;;;;;;;;;;;;;;;34.31;43.43;99657.19;5093849;28;1279;-69
2023/07/23 12:24:10;;;;;;;;;;;;;;;35.42;41.20;99657.94;5093874;28;893;-72
2023/07/23 12:26:37;;;;;;;;;;;;;;;35.34;39.24;99655.88;5093547;28;796;-70
2023/07/23 12:29:04;;;;;;;;;;;;;;;35.67;38.21;99652.31;5093422;28;1013;-70
2023/07/23 12:31:30;;;;;;;;;;;;;;;36.26;36.27;99645.22;5075464;28;1447;-70
2023/07/23 12:33:57;;;;;;;;;;;;;;;37.07;36.08;99651.34;5109155;28;1340;-71
2023/07/23 12:36:23;;;;;;;;;;;;;;;37.50;35.01;99648.34;5093402;28;966;-70
2023/07/23 12:38:50;;;;;;;;;;;;;;;37.16;34.96;99642.03;5093247;28;1867;-70
2023/07/23 12:41:17;;;;;;;;;;;;;;;37.52;34.76;99646.41;5093474;28;797;-70
2023/07/23 12:43:43;;;;;;;;;;;;;;;37.76;34.12;99644.72;5093073;28;892;-70
2023/07/23 12:46:10;;;;;;;;;;;;;;;37.51;34.32;99642.00;5093157;28;906;-68
2023/07/23 12:48:36;;;;;;;;;;;;;;;37.08;34.76;99635.59;5092925;28;1587;-70
2023/07/23 12:51:04;;;;;;;;;;;;;;;36.71;35.10;99644.06;5093033;28;860;-68
2023/07/23 12:53:31;;;;;;;;;;;;;;;36.24;35.97;99645.06;5093072;28;854;-70
2023/07/23 12:55:57;;;;;;;;;;;;;;;36.18;35.82;99656.78;5093026;28;802;-70
2023/07/23 12:58:23;;;;;;;;;;;;;;;36.39;35.67;99651.41;5092946;28;818;-69
2023/07/23 13:00:50;;;;;;;;;;;;;;;36.61;35.53;99643.19;5092973;28;1906;-70
2023/07/23 13:03:17;;;;;;;;;;;;;;;36.95;35.77;99653.22;5092821;28;850;-69
2023/07/23 13:05:44;;;;;;;;;;;;;;;37.38;34.96;99659.66;5092811;28;862;-69
2023/07/23 13:08:10;;;;;;;;;;;;;;;37.06;34.71;99658.44;5092921;28;798;-69
2023/07/23 13:10:42;;;;;;;;;;;;;;;36.10;35.54;99656.78;5092742;28;833;-70
2023/07/23 13:13:08;;;;;;;;;;;;;;;36.15;35.54;99657.97;5092511;28;851;-69
2023/07/23 13:15:34;;;;;;;;;;;;;;;36.45;33.91;99656.19;5074549;28;897;-69
2023/07/23 13:18:01;;;;;;;;;;;;;;;36.18;35.24;99656.78;5092579;28;1021;-69
2023/07/23 13:20:27;;;;;;;;;;;;;;;36.44;34.23;99669.78;5092511;28;1890;-69
2023/07/23 13:22:54;;;;;;;;;;;;;;;36.52;33.79;99664.75;5092703;28;833;-69
2023/07/23 13:25:20;;;;;;;;;;;;;;;36.53;33.33;99654.78;5074234;28;921;-69
2023/07/23 13:27:47;;;;;;;;;;;;;;;35.73;33.98;99664.34;5092549;28;837;-69
2023/07/23 13:30:14;;;;;;;;;;;;;;;34.16;35.78;99669.41;5091977;28;878;-69
2023/07/23 13:32:40;;;;;;;;;;;;;;;34.56;35.67;99671.69;5092475;28;825;-69
2023/07/23 13:35:08;;;;;;;;;;;;;;;35.15;35.33;99656.34;5092239;28;832;-68
2023/07/23 13:37:34;;;;;;;;;;;;;;;36.58;33.65;99653.00;5092255;28;833;-69